Manizales — CQKL — position and weather

sailwx.info

Track history (hours):
 
Tides and Currents Weather Stations Pressure Air Temp Water Temp Dewpoint Dewpoint Depression Visibility Wind Speed Wind Dir Waves Ship Positions

Manizales

Last reported at 2014-Jul-08 16:32 UTC. Time now 2014-Jul-30 21:25 UTC.
Position N 25°52' W 079°31'.
Warning: this ship's position is 22 days out of date.

Length 119 m; draft 7.1 m.

Type: Cargo ship. MMSI: 255804560.

Date/timePositionNaut miles runAvg speedWind from/ knotsBaromVisibWave heightAir tempDewpointWater temp
2014-Jul-08 16:32N 25°52' W 079°31'7 7.5
2014-Jul-08 15:33N 25°59' W 079°30'9 8.0
2014-Jul-08 14:27N 26°08' W 079°29'7 8.2
2014-Jul-08 13:32N 26°15' W 079°28'  
2014-Jun-29 12:32N 37°12' W 074°37'1212.1
2014-Jun-29 11:33N 37°24' W 074°38'1212.3
2014-Jun-29 10:33N 37°36' W 074°39'1212.3
2014-Jun-29 09:33N 37°49' W 074°39'1212.3
2014-Jun-29 08:33N 38°01' W 074°40'1212.4
2014-Jun-29 07:33N 38°13' W 074°41'2912.3
2014-Jun-29 05:10N 38°40' W 074°55'813.1
2014-Jun-29 04:33N 38°46' W 075°02'  
Track history (hours):
 
Tides and Currents Weather Stations Pressure Air Temp Water Temp Dewpoint Dewpoint Depression Visibility Wind Speed Wind Dir Waves Ship Positions

Manizales

Last reported at 2014-Jul-08 16:32 UTC. Time now 2014-Jul-30 21:25 UTC.
Position N 25°52' W 079°31'.
Warning: this ship's position is 22 days out of date.

Length 119 m; draft 7.1 m.

Type: Cargo ship. MMSI: 255804560.

Date/timePositionNaut miles runAvg speedWind from/ knotsBaromVisibWave heightAir tempDewpointWater temp
2014-Jul-08 16:32N 25°52' W 079°31'7 7.5
2014-Jul-08 15:33N 25°59' W 079°30'9 8.0
2014-Jul-08 14:27N 26°08' W 079°29'7 8.2
2014-Jul-08 13:32N 26°15' W 079°28'  
2014-Jun-29 12:32N 37°12' W 074°37'1212.1
2014-Jun-29 11:33N 37°24' W 074°38'1212.3
2014-Jun-29 10:33N 37°36' W 074°39'1212.3
2014-Jun-29 09:33N 37°49' W 074°39'1212.3
2014-Jun-29 08:33N 38°01' W 074°40'1212.4
2014-Jun-29 07:33N 38°13' W 074°41'2912.3
2014-Jun-29 05:10N 38°40' W 074°55'813.1
2014-Jun-29 04:33N 38°46' W 075°02'  

Dump ship's entire track history